sensor_id;sensor_type;location;lat;lon;timestamp;temperature;humidity
10247;DHT22;5168;47.854;7.944;2023-04-24T00:00:54;6.90;99.90
10247;DHT22;5168;47.854;7.944;2023-04-24T00:03:22;6.80;99.90
10247;DHT22;5168;47.854;7.944;2023-04-24T00:05:48;6.40;99.90
10247;DHT22;5168;47.854;7.944;2023-04-24T00:08:13;6.90;99.90
10247;DHT22;5168;47.854;7.944;2023-04-24T00:10:39;6.70;99.90
10247;DHT22;5168;47.854;7.944;2023-04-24T00:13:04;7.00;99.90
10247;DHT22;5168;47.854;7.944;2023-04-24T00:17:56;6.70;99.90
10247;DHT22;5168;47.854;7.944;2023-04-24T00:30:06;6.80;99.90
10247;DHT22;5168;47.854;7.944;2023-04-24T00:32:32;7.00;99.90
10247;DHT22;5168;47.854;7.944;2023-04-24T00:34:57;6.90;99.90
10247;DHT22;5168;47.854;7.944;2023-04-24T00:37:23;6.90;99.90
10247;DHT22;5168;47.854;7.944;2023-04-24T00:44:40;6.70;99.90
10247;DHT22;5168;47.854;7.944;2023-04-24T00:47:07;6.70;99.90
10247;DHT22;5168;47.854;7.944;2023-04-24T00:49:32;6.60;99.90
10247;DHT22;5168;47.854;7.944;2023-04-24T00:51:58;7.00;99.90
10247;DHT22;5168;47.854;7.944;2023-04-24T00:54:24;6.90;99.90
10247;DHT22;5168;47.854;7.944;2023-04-24T00:56:50;6.80;99.90
10247;DHT22;5168;47.854;7.944;2023-04-24T00:59:16;7.20;99.90
10247;DHT22;5168;47.854;7.944;2023-04-24T01:01:44;6.50;99.90
10247;DHT22;5168;47.854;7.944;2023-04-24T01:04:11;6.40;99.90
10247;DHT22;5168;47.854;7.944;2023-04-24T01:06:39;6.20;99.90
10247;DHT22;5168;47.854;7.944;2023-04-24T01:09:05;6.10;99.90
10247;DHT22;5168;47.854;7.944;2023-04-24T01:11:33;6.20;99.90
10247;DHT22;5168;47.854;7.944;2023-04-24T01:13:59;6.40;99.90
10247;DHT22;5168;47.854;7.944;2023-04-24T01:16:25;5.80;99.90
10247;DHT22;5168;47.854;7.944;2023-04-24T01:18:51;6.20;99.90
10247;DHT22;5168;47.854;7.944;2023-04-24T01:21:18;6.50;99.90
10247;DHT22;5168;47.854;7.944;2023-04-24T01:23:44;8.00;99.90
10247;DHT22;5168;47.854;7.944;2023-04-24T01:26:10;6.00;99.90
10247;DHT22;5168;47.854;7.944;2023-04-24T01:28:36;6.30;99.90
10247;DHT22;5168;47.854;7.944;2023-04-24T01:31:02;6.40;99.90
10247;DHT22;5168;47.854;7.944;2023-04-24T01:33:27;6.00;99.90
10247;DHT22;5168;47.854;7.944;2023-04-24T01:35:53;6.50;99.90
10247;DHT22;5168;47.854;7.944;2023-04-24T01:43:12;6.30;99.90
10247;DHT22;5168;47.854;7.944;2023-04-24T01:52:55;6.00;99.90
10247;DHT22;5168;47.854;7.944;2023-04-24T01:55:21;6.00;99.90
10247;DHT22;5168;47.854;7.944;2023-04-24T01:57:47;6.30;99.90
10247;DHT22;5168;47.854;7.944;2023-04-24T02:00:13;6.00;99.90
10247;DHT22;5168;47.854;7.944;2023-04-24T02:02:40;6.10;99.90
10247;DHT22;5168;47.854;7.944;2023-04-24T02:05:07;6.30;99.90
10247;DHT22;5168;47.854;7.944;2023-04-24T02:07:36;6.50;99.90
10247;DHT22;5168;47.854;7.944;2023-04-24T02:10:02;5.90;99.90
10247;DHT22;5168;47.854;7.944;2023-04-24T02:22:14;6.20;99.90
10247;DHT22;5168;47.854;7.944;2023-04-24T02:24:39;6.40;99.90
10247;DHT22;5168;47.854;7.944;2023-04-24T02:34:24;6.00;99.90
10247;DHT22;5168;47.854;7.944;2023-04-24T02:44:08;6.10;99.90
10247;DHT22;5168;47.854;7.944;2023-04-24T02:46:33;6.10;99.90
10247;DHT22;5168;47.854;7.944;2023-04-24T02:48:59;6.50;99.90
10247;DHT22;5168;47.854;7.944;2023-04-24T02:53:50;6.10;99.90
10247;DHT22;5168;47.854;7.944;2023-04-24T02:56:16;6.20;99.90
10247;DHT22;5168;47.854;7.944;2023-04-24T02:58:41;6.10;99.90
10247;DHT22;5168;47.854;7.944;2023-04-24T03:01:07;6.30;99.90
10247;DHT22;5168;47.854;7.944;2023-04-24T03:03:35;6.30;99.90
10247;DHT22;5168;47.854;7.944;2023-04-24T03:06:00;6.30;99.90
10247;DHT22;5168;47.854;7.944;2023-04-24T03:08:27;6.50;99.90
10247;DHT22;5168;47.854;7.944;2023-04-24T03:10:52;6.40;99.90
10247;DHT22;5168;47.854;7.944;2023-04-24T03:13:18;6.00;99.90
10247;DHT22;5168;47.854;7.944;2023-04-24T03:15:43;6.20;99.90
10247;DHT22;5168;47.854;7.944;2023-04-24T03:23:03;5.90;99.90
10247;DHT22;5168;47.854;7.944;2023-04-24T03:35:12;6.50;99.90
10247;DHT22;5168;47.854;7.944;2023-04-24T03:37:37;6.40;99.90
10247;DHT22;5168;47.854;7.944;2023-04-24T03:40:03;6.50;99.90
10247;DHT22;5168;47.854;7.944;2023-04-24T03:44:55;6.20;99.90
10247;DHT22;5168;47.854;7.944;2023-04-24T03:49:47;5.50;99.90
10247;DHT22;5168;47.854;7.944;2023-04-24T03:52:12;6.00;99.90
10247;DHT22;5168;47.854;7.944;2023-04-24T03:54:40;5.70;99.90
10247;DHT22;5168;47.854;7.944;2023-04-24T03:57:06;5.60;99.90
10247;DHT22;5168;47.854;7.944;2023-04-24T04:04:23;5.30;99.90
10247;DHT22;5168;47.854;7.944;2023-04-24T04:09:15;5.50;99.90
10247;DHT22;5168;47.854;7.944;2023-04-24T04:21:24;5.60;99.90
10247;DHT22;5168;47.854;7.944;2023-04-24T04:23:50;5.50;99.90
10247;DHT22;5168;47.854;7.944;2023-04-24T04:28:41;5.30;99.90
10247;DHT22;5168;47.854;7.944;2023-04-24T04:33:33;5.20;99.90
10247;DHT22;5168;47.854;7.944;2023-04-24T04:35:59;5.30;99.90
10247;DHT22;5168;47.854;7.944;2023-04-24T04:38:25;5.20;99.90
10247;DHT22;5168;47.854;7.944;2023-04-24T04:40:55;5.20;99.90
10247;DHT22;5168;47.854;7.944;2023-04-24T04:43:25;5.20;99.90
10247;DHT22;5168;47.854;7.944;2023-04-24T04:45:52;5.10;99.90
10247;DHT22;5168;47.854;7.944;2023-04-24T04:48:18;5.50;99.90
10247;DHT22;5168;47.854;7.944;2023-04-24T04:50:44;5.60;99.90
10247;DHT22;5168;47.854;7.944;2023-04-24T04:53:10;5.30;99.90
10247;DHT22;5168;47.854;7.944;2023-04-24T04:55:36;5.40;99.90
10247;DHT22;5168;47.854;7.944;2023-04-24T04:58:02;5.40;99.90
10247;DHT22;5168;47.854;7.944;2023-04-24T05:00:27;5.30;99.90
10247;DHT22;5168;47.854;7.944;2023-04-24T05:02:54;5.00;99.90
10247;DHT22;5168;47.854;7.944;2023-04-24T05:05:19;5.50;99.90
10247;DHT22;5168;47.854;7.944;2023-04-24T05:07:45;4.90;99.90
10247;DHT22;5168;47.854;7.944;2023-04-24T05:12:36;5.10;99.90
10247;DHT22;5168;47.854;7.944;2023-04-24T05:15:03;4.70;99.90
10247;DHT22;5168;47.854;7.944;2023-04-24T05:17:28;5.00;99.90
10247;DHT22;5168;47.854;7.944;2023-04-24T05:19:54;5.10;99.90
10247;DHT22;5168;47.854;7.944;2023-04-24T05:22:20;5.20;99.90
10247;DHT22;5168;47.854;7.944;2023-04-24T05:24:46;5.30;99.90
10247;DHT22;5168;47.854;7.944;2023-04-24T05:27:12;5.00;99.90
10247;DHT22;5168;47.854;7.944;2023-04-24T05:36:56;4.90;99.90
10247;DHT22;5168;47.854;7.944;2023-04-24T05:39:21;5.00;99.90
10247;DHT22;5168;47.854;7.944;2023-04-24T05:41:47;4.90;99.90
10247;DHT22;5168;47.854;7.944;2023-04-24T06:01:15;5.40;99.90
10247;DHT22;5168;47.854;7.944;2023-04-24T06:03:41;4.90;99.90
10247;DHT22;5168;47.854;7.944;2023-04-24T06:06:07;4.80;99.90
10247;DHT22;5168;47.854;7.944;2023-04-24T06:08:34;5.30;99.90
10247;DHT22;5168;47.854;7.944;2023-04-24T06:13:25;5.30;99.90
10247;DHT22;5168;47.854;7.944;2023-04-24T06:15:52;5.20;99.90
10247;DHT22;5168;47.854;7.944;2023-04-24T06:20:45;5.10;99.90
10247;DHT22;5168;47.854;7.944;2023-04-24T06:23:11;5.40;99.90
10247;DHT22;5168;47.854;7.944;2023-04-24T06:35:20;4.90;99.90
10247;DHT22;5168;47.854;7.944;2023-04-24T06:37:46;5.10;99.90
10247;DHT22;5168;47.854;7.944;2023-04-24T06:40:11;5.20;99.90
10247;DHT22;5168;47.854;7.944;2023-04-24T06:42:37;4.80;99.90
10247;DHT22;5168;47.854;7.944;2023-04-24T06:45:03;4.80;99.90
10247;DHT22;5168;47.854;7.944;2023-04-24T06:47:30;4.90;99.90
10247;DHT22;5168;47.854;7.944;2023-04-24T06:52:22;4.30;99.90
10247;DHT22;5168;47.854;7.944;2023-04-24T06:54:47;4.60;99.90
10247;DHT22;5168;47.854;7.944;2023-04-24T06:57:13;4.30;99.90
10247;DHT22;5168;47.854;7.944;2023-04-24T06:59:39;4.90;99.90
10247;DHT22;5168;47.854;7.944;2023-04-24T07:02:04;4.90;99.90
10247;DHT22;5168;47.854;7.944;2023-04-24T07:09:25;5.00;99.90
10247;DHT22;5168;47.854;7.944;2023-04-24T07:11:51;4.80;99.90
10247;DHT22;5168;47.854;7.944;2023-04-24T07:14:18;5.10;99.90
10247;DHT22;5168;47.854;7.944;2023-04-24T07:16:43;4.80;99.90
10247;DHT22;5168;47.854;7.944;2023-04-24T07:19:10;4.80;99.90
10247;DHT22;5168;47.854;7.944;2023-04-24T07:21:36;5.00;99.90
10247;DHT22;5168;47.854;7.944;2023-04-24T07:26:29;5.00;99.90
10247;DHT22;5168;47.854;7.944;2023-04-24T07:31:21;4.90;99.90
10247;DHT22;5168;47.854;7.944;2023-04-24T07:36:13;5.40;99.90
10247;DHT22;5168;47.854;7.944;2023-04-24T07:38:41;5.40;99.90
10247;DHT22;5168;47.854;7.944;2023-04-24T07:41:07;5.20;99.90
10247;DHT22;5168;47.854;7.944;2023-04-24T07:43:33;5.30;99.90
10247;DHT22;5168;47.854;7.944;2023-04-24T07:50:51;5.60;99.90
10247;DHT22;5168;47.854;7.944;2023-04-24T07:53:17;5.70;99.90
10247;DHT22;5168;47.854;7.944;2023-04-24T08:05:27;6.00;99.90
10247;DHT22;5168;47.854;7.944;2023-04-24T08:07:54;5.90;99.90
10247;DHT22;5168;47.854;7.944;2023-04-24T08:10:21;5.70;99.90
10247;DHT22;5168;47.854;7.944;2023-04-24T08:12:47;6.30;99.90
10247;DHT22;5168;47.854;7.944;2023-04-24T08:15:12;5.60;99.90
10247;DHT22;5168;47.854;7.944;2023-04-24T08:17:38;6.50;99.90
10247;DHT22;5168;47.854;7.944;2023-04-24T08:20:08;5.60;99.90
10247;DHT22;5168;47.854;7.944;2023-04-24T08:22:39;5.50;99.90
10247;DHT22;5168;47.854;7.944;2023-04-24T08:25:05;5.60;99.90
10247;DHT22;5168;47.854;7.944;2023-04-24T08:27:31;5.50;99.90
10247;DHT22;5168;47.854;7.944;2023-04-24T08:29:57;5.90;99.90
10247;DHT22;5168;47.854;7.944;2023-04-24T08:32:23;5.20;99.90
10247;DHT22;5168;47.854;7.944;2023-04-24T08:39:42;5.50;99.90
10247;DHT22;5168;47.854;7.944;2023-04-24T08:42:08;5.40;99.90
10247;DHT22;5168;47.854;7.944;2023-04-24T08:44:35;6.10;99.90
10247;DHT22;5168;47.854;7.944;2023-04-24T08:47:04;5.50;99.90
10247;DHT22;5168;47.854;7.944;2023-04-24T08:49:31;5.90;99.90
10247;DHT22;5168;47.854;7.944;2023-04-24T08:56:49;6.20;99.90
10247;DHT22;5168;47.854;7.944;2023-04-24T09:01:42;6.40;99.90
10247;DHT22;5168;47.854;7.944;2023-04-24T09:04:09;6.10;99.90
10247;DHT22;5168;47.854;7.944;2023-04-24T09:06:39;6.30;99.90
10247;DHT22;5168;47.854;7.944;2023-04-24T09:09:05;6.20;99.90
10247;DHT22;5168;47.854;7.944;2023-04-24T09:11:31;6.00;99.90
10247;DHT22;5168;47.854;7.944;2023-04-24T09:13:58;6.30;99.90
10247;DHT22;5168;47.854;7.944;2023-04-24T09:16:25;7.10;99.90
10247;DHT22;5168;47.854;7.944;2023-04-24T09:18:52;7.60;99.90
10247;DHT22;5168;47.854;7.944;2023-04-24T09:21:19;7.90;99.90
10247;DHT22;5168;47.854;7.944;2023-04-24T09:23:45;8.00;99.90
10247;DHT22;5168;47.854;7.944;2023-04-24T09:28:39;7.50;99.90
10247;DHT22;5168;47.854;7.944;2023-04-24T09:31:16;7.40;99.90
10247;DHT22;5168;47.854;7.944;2023-04-24T09:34:09;7.50;99.90
10247;DHT22;5168;47.854;7.944;2023-04-24T09:36:42;7.30;99.90
10247;DHT22;5168;47.854;7.944;2023-04-24T09:39:11;7.50;99.90
10247;DHT22;5168;47.854;7.944;2023-04-24T09:41:47;7.90;99.90
10247;DHT22;5168;47.854;7.944;2023-04-24T09:44:18;8.30;99.90
10247;DHT22;5168;47.854;7.944;2023-04-24T09:46:53;8.30;99.90
10247;DHT22;5168;47.854;7.944;2023-04-24T09:49:24;8.10;99.90
10247;DHT22;5168;47.854;7.944;2023-04-24T09:51:50;8.00;99.90
10247;DHT22;5168;47.854;7.944;2023-04-24T09:54:18;7.50;99.90
10247;DHT22;5168;47.854;7.944;2023-04-24T09:56:47;7.30;99.90
10247;DHT22;5168;47.854;7.944;2023-04-24T09:59:13;6.90;99.90
10247;DHT22;5168;47.854;7.944;2023-04-24T10:01:39;6.70;99.90
10247;DHT22;5168;47.854;7.944;2023-04-24T10:04:16;7.10;99.90
10247;DHT22;5168;47.854;7.944;2023-04-24T10:06:43;6.40;99.90
10247;DHT22;5168;47.854;7.944;2023-04-24T10:09:08;5.80;99.90
10247;DHT22;5168;47.854;7.944;2023-04-24T10:11:37;6.10;99.90
10247;DHT22;5168;47.854;7.944;2023-04-24T10:14:03;5.30;99.90
10247;DHT22;5168;47.854;7.944;2023-04-24T10:16:29;4.80;99.90
10247;DHT22;5168;47.854;7.944;2023-04-24T10:18:59;5.80;99.90
10247;DHT22;5168;47.854;7.944;2023-04-24T10:21:26;5.10;99.90
10247;DHT22;5168;47.854;7.944;2023-04-24T10:26:20;5.20;99.90
10247;DHT22;5168;47.854;7.944;2023-04-24T10:28:47;5.90;99.90
10247;DHT22;5168;47.854;7.944;2023-04-24T10:31:14;5.70;99.90
10247;DHT22;5168;47.854;7.944;2023-04-24T10:33:43;5.90;99.90
10247;DHT22;5168;47.854;7.944;2023-04-24T10:36:11;5.50;99.90
10247;DHT22;5168;47.854;7.944;2023-04-24T10:38:40;5.70;99.90
10247;DHT22;5168;47.854;7.944;2023-04-24T10:43:34;5.40;99.90
10247;DHT22;5168;47.854;7.944;2023-04-24T10:46:05;5.80;99.90
10247;DHT22;5168;47.854;7.944;2023-04-24T10:48:32;5.50;99.90
10247;DHT22;5168;47.854;7.944;2023-04-24T10:50:58;6.00;99.90
10247;DHT22;5168;47.854;7.944;2023-04-24T10:53:27;6.00;99.90
10247;DHT22;5168;47.854;7.944;2023-04-24T10:56:03;6.00;99.90
10247;DHT22;5168;47.854;7.944;2023-04-24T10:58:43;6.30;99.90
10247;DHT22;5168;47.854;7.944;2023-04-24T11:01:32;6.50;99.90
10247;DHT22;5168;47.854;7.944;2023-04-24T11:04:00;6.10;99.90
10247;DHT22;5168;47.854;7.944;2023-04-24T11:06:33;6.30;99.90
10247;DHT22;5168;47.854;7.944;2023-04-24T11:09:04;6.30;99.90
10247;DHT22;5168;47.854;7.944;2023-04-24T11:11:31;6.30;99.90
10247;DHT22;5168;47.854;7.944;2023-04-24T11:16:30;6.20;99.90
10247;DHT22;5168;47.854;7.944;2023-04-24T11:19:05;5.60;99.90
10247;DHT22;5168;47.854;7.944;2023-04-24T11:21:42;5.80;99.90
10247;DHT22;5168;47.854;7.944;2023-04-24T11:24:24;5.80;99.90
10247;DHT22;5168;47.854;7.944;2023-04-24T11:26:52;5.70;99.90
10247;DHT22;5168;47.854;7.944;2023-04-24T11:29:20;5.40;99.90
10247;DHT22;5168;47.854;7.944;2023-04-24T11:31:46;5.80;99.90
10247;DHT22;5168;47.854;7.944;2023-04-24T11:34:17;6.00;99.90
10247;DHT22;5168;47.854;7.944;2023-04-24T11:36:44;5.90;99.90
10247;DHT22;5168;47.854;7.944;2023-04-24T11:39:10;6.40;99.90
10247;DHT22;5168;47.854;7.944;2023-04-24T11:41:37;6.20;99.90
10247;DHT22;5168;47.854;7.944;2023-04-24T11:44:03;5.70;99.90
10247;DHT22;5168;47.854;7.944;2023-04-24T11:46:31;5.80;99.90
10247;DHT22;5168;47.854;7.944;2023-04-24T11:48:57;6.50;99.90
10247;DHT22;5168;47.854;7.944;2023-04-24T11:51:24;6.70;99.90
10247;DHT22;5168;47.854;7.944;2023-04-24T11:53:51;6.60;99.90
10247;DHT22;5168;47.854;7.944;2023-04-24T11:56:21;6.60;99.90
10247;DHT22;5168;47.854;7.944;2023-04-24T11:58:47;7.30;99.90
10247;DHT22;5168;47.854;7.944;2023-04-24T12:01:13;7.20;99.90
10247;DHT22;5168;47.854;7.944;2023-04-24T12:03:39;7.30;99.90
10247;DHT22;5168;47.854;7.944;2023-04-24T12:06:09;7.70;99.90
10247;DHT22;5168;47.854;7.944;2023-04-24T12:08:36;7.90;99.90
10247;DHT22;5168;47.854;7.944;2023-04-24T12:11:03;8.10;99.90
10247;DHT22;5168;47.854;7.944;2023-04-24T12:15:57;6.90;99.90
10247;DHT22;5168;47.854;7.944;2023-04-24T12:18:23;6.40;99.90
10247;DHT22;5168;47.854;7.944;2023-04-24T12:20:49;6.80;99.90
10247;DHT22;5168;47.854;7.944;2023-04-24T12:23:15;6.60;99.90
10247;DHT22;5168;47.854;7.944;2023-04-24T12:25:40;6.30;99.90
10247;DHT22;5168;47.854;7.944;2023-04-24T12:30:34;6.30;99.90
10247;DHT22;5168;47.854;7.944;2023-04-24T12:33:01;6.30;99.90
10247;DHT22;5168;47.854;7.944;2023-04-24T12:35:29;6.60;99.90
10247;DHT22;5168;47.854;7.944;2023-04-24T12:38:08;6.70;99.90
10247;DHT22;5168;47.854;7.944;2023-04-24T12:43:00;7.20;99.90
10247;DHT22;5168;47.854;7.944;2023-04-24T12:45:26;7.40;99.90
10247;DHT22;5168;47.854;7.944;2023-04-24T12:47:53;7.60;99.90
10247;DHT22;5168;47.854;7.944;2023-04-24T12:52:44;7.40;99.90
10247;DHT22;5168;47.854;7.944;2023-04-24T12:55:10;7.30;99.90
10247;DHT22;5168;47.854;7.944;2023-04-24T12:57:39;6.90;99.90
10247;DHT22;5168;47.854;7.944;2023-04-24T13:00:06;7.30;99.90
10247;DHT22;5168;47.854;7.944;2023-04-24T13:02:33;6.90;99.90
10247;DHT22;5168;47.854;7.944;2023-04-24T13:05:00;7.00;99.90
10247;DHT22;5168;47.854;7.944;2023-04-24T13:07:26;6.80;99.90
10247;DHT22;5168;47.854;7.944;2023-04-24T13:09:53;6.80;99.90
10247;DHT22;5168;47.854;7.944;2023-04-24T13:12:19;6.80;99.90
10247;DHT22;5168;47.854;7.944;2023-04-24T13:14:45;7.20;99.90
10247;DHT22;5168;47.854;7.944;2023-04-24T13:17:11;6.30;99.90
10247;DHT22;5168;47.854;7.944;2023-04-24T13:19:39;7.10;99.90
10247;DHT22;5168;47.854;7.944;2023-04-24T13:22:06;6.60;99.90
10247;DHT22;5168;47.854;7.944;2023-04-24T13:24:32;7.30;99.90
10247;DHT22;5168;47.854;7.944;2023-04-24T13:26:58;7.20;99.90
10247;DHT22;5168;47.854;7.944;2023-04-24T13:29:24;7.60;99.90
10247;DHT22;5168;47.854;7.944;2023-04-24T13:31:51;7.40;99.90
10247;DHT22;5168;47.854;7.944;2023-04-24T13:34:17;7.30;99.90
10247;DHT22;5168;47.854;7.944;2023-04-24T13:36:43;7.20;99.90
10247;DHT22;5168;47.854;7.944;2023-04-24T13:41:36;7.40;99.90
10247;DHT22;5168;47.854;7.944;2023-04-24T13:44:06;7.60;99.90
10247;DHT22;5168;47.854;7.944;2023-04-24T13:46:32;7.80;99.90
10247;DHT22;5168;47.854;7.944;2023-04-24T13:48:58;8.20;99.90
10247;DHT22;5168;47.854;7.944;2023-04-24T13:51:27;8.40;99.90
10247;DHT22;5168;47.854;7.944;2023-04-24T13:53:53;8.00;99.90
10247;DHT22;5168;47.854;7.944;2023-04-24T13:56:18;8.30;99.90
10247;DHT22;5168;47.854;7.944;2023-04-24T13:58:44;8.20;99.90
10247;DHT22;5168;47.854;7.944;2023-04-24T14:03:37;7.70;99.90
10247;DHT22;5168;47.854;7.944;2023-04-24T14:06:03;8.20;99.90
10247;DHT22;5168;47.854;7.944;2023-04-24T14:08:28;7.60;99.90
10247;DHT22;5168;47.854;7.944;2023-04-24T14:18:12;7.70;99.90
10247;DHT22;5168;47.854;7.944;2023-04-24T14:20:38;7.30;99.90
10247;DHT22;5168;47.854;7.944;2023-04-24T14:23:03;7.10;99.90
10247;DHT22;5168;47.854;7.944;2023-04-24T14:25:29;7.00;99.90
10247;DHT22;5168;47.854;7.944;2023-04-24T14:30:21;6.80;99.90
10247;DHT22;5168;47.854;7.944;2023-04-24T14:32:47;6.50;99.90
10247;DHT22;5168;47.854;7.944;2023-04-24T14:40:07;6.50;99.90
10247;DHT22;5168;47.854;7.944;2023-04-24T14:42:33;6.70;99.90
10247;DHT22;5168;47.854;7.944;2023-04-24T14:44:59;6.50;99.90
10247;DHT22;5168;47.854;7.944;2023-04-24T14:49:51;6.30;99.90
10247;DHT22;5168;47.854;7.944;2023-04-24T14:54:43;6.20;99.90
10247;DHT22;5168;47.854;7.944;2023-04-24T14:59:35;6.20;99.90
10247;DHT22;5168;47.854;7.944;2023-04-24T15:04:28;6.20;99.90
10247;DHT22;5168;47.854;7.944;2023-04-24T15:06:54;6.20;99.90
10247;DHT22;5168;47.854;7.944;2023-04-24T15:09:21;6.20;99.90
10247;DHT22;5168;47.854;7.944;2023-04-24T15:11:47;6.60;99.90
10247;DHT22;5168;47.854;7.944;2023-04-24T15:16:39;6.40;99.90
10247;DHT22;5168;47.854;7.944;2023-04-24T15:21:30;6.70;99.90
10247;DHT22;5168;47.854;7.944;2023-04-24T15:23:57;6.40;99.90
10247;DHT22;5168;47.854;7.944;2023-04-24T15:26:23;6.20;99.90
10247;DHT22;5168;47.854;7.944;2023-04-24T15:36:09;6.60;99.90
10247;DHT22;5168;47.854;7.944;2023-04-24T15:41:01;6.50;99.90
10247;DHT22;5168;47.854;7.944;2023-04-24T15:45:56;7.10;99.90
10247;DHT22;5168;47.854;7.944;2023-04-24T15:48:22;6.60;99.90
10247;DHT22;5168;47.854;7.944;2023-04-24T15:55:49;7.00;99.90
10247;DHT22;5168;47.854;7.944;2023-04-24T16:00:41;6.90;99.90
10247;DHT22;5168;47.854;7.944;2023-04-24T16:03:07;6.50;99.90
10247;DHT22;5168;47.854;7.944;2023-04-24T16:05:33;7.10;99.90
10247;DHT22;5168;47.854;7.944;2023-04-24T16:07:59;6.60;99.90
10247;DHT22;5168;47.854;7.944;2023-04-24T16:10:25;7.10;99.90
10247;DHT22;5168;47.854;7.944;2023-04-24T16:12:51;6.40;99.90
10247;DHT22;5168;47.854;7.944;2023-04-24T16:15:17;6.70;99.90
10247;DHT22;5168;47.854;7.944;2023-04-24T16:17:43;6.90;99.90
10247;DHT22;5168;47.854;7.944;2023-04-24T16:20:09;6.40;99.90
10247;DHT22;5168;47.854;7.944;2023-04-24T16:32:18;6.30;99.90
10247;DHT22;5168;47.854;7.944;2023-04-24T16:34:44;6.40;99.90
10247;DHT22;5168;47.854;7.944;2023-04-24T16:39:36;6.30;99.90
10247;DHT22;5168;47.854;7.944;2023-04-24T16:42:03;5.90;99.90
10247;DHT22;5168;47.854;7.944;2023-04-24T16:44:29;6.30;99.90
10247;DHT22;5168;47.854;7.944;2023-04-24T16:49:22;6.20;99.90
10247;DHT22;5168;47.854;7.944;2023-04-24T16:51:55;6.00;99.90
10247;DHT22;5168;47.854;7.944;2023-04-24T16:54:20;6.00;99.90
10247;DHT22;5168;47.854;7.944;2023-04-24T16:59:12;6.30;99.90
10247;DHT22;5168;47.854;7.944;2023-04-24T17:01:37;6.00;99.90
10247;DHT22;5168;47.854;7.944;2023-04-24T17:04:03;6.30;99.90
10247;DHT22;5168;47.854;7.944;2023-04-24T17:06:28;6.40;99.90
10247;DHT22;5168;47.854;7.944;2023-04-24T17:18:39;6.10;99.90
10247;DHT22;5168;47.854;7.944;2023-04-24T17:23:31;5.60;99.90
10247;DHT22;5168;47.854;7.944;2023-04-24T17:25:57;5.90;99.90
10247;DHT22;5168;47.854;7.944;2023-04-24T17:28:30;6.20;99.90
10247;DHT22;5168;47.854;7.944;2023-04-24T17:30:56;6.50;99.90
10247;DHT22;5168;47.854;7.944;2023-04-24T17:33:29;5.70;99.90
10247;DHT22;5168;47.854;7.944;2023-04-24T17:35:55;6.10;99.90
10247;DHT22;5168;47.854;7.944;2023-04-24T17:40:48;5.70;99.90
10247;DHT22;5168;47.854;7.944;2023-04-24T17:43:20;6.00;99.90
10247;DHT22;5168;47.854;7.944;2023-04-24T17:45:50;5.80;99.90
10247;DHT22;5168;47.854;7.944;2023-04-24T17:48:17;5.50;99.90
10247;DHT22;5168;47.854;7.944;2023-04-24T17:50:44;5.80;99.90
10247;DHT22;5168;47.854;7.944;2023-04-24T17:53:10;6.20;99.90
10247;DHT22;5168;47.854;7.944;2023-04-24T17:55:36;5.50;99.90
10247;DHT22;5168;47.854;7.944;2023-04-24T17:58:02;5.60;99.90
10247;DHT22;5168;47.854;7.944;2023-04-24T18:00:29;5.50;99.90
10247;DHT22;5168;47.854;7.944;2023-04-24T18:02:56;5.70;99.90
10247;DHT22;5168;47.854;7.944;2023-04-24T18:07:54;5.70;99.90
10247;DHT22;5168;47.854;7.944;2023-04-24T18:10:28;5.50;99.90
10247;DHT22;5168;47.854;7.944;2023-04-24T18:12:55;5.10;99.90
10247;DHT22;5168;47.854;7.944;2023-04-24T18:15:21;5.50;99.90
10247;DHT22;5168;47.854;7.944;2023-04-24T18:17:47;6.10;99.90
10247;DHT22;5168;47.854;7.944;2023-04-24T18:20:16;5.60;99.90
10247;DHT22;5168;47.854;7.944;2023-04-24T18:22:42;5.80;99.90
10247;DHT22;5168;47.854;7.944;2023-04-24T18:25:08;5.30;99.90
10247;DHT22;5168;47.854;7.944;2023-04-24T18:27:34;5.30;99.90
10247;DHT22;5168;47.854;7.944;2023-04-24T18:30:00;5.50;99.90
10247;DHT22;5168;47.854;7.944;2023-04-24T18:39:44;5.40;99.90
10247;DHT22;5168;47.854;7.944;2023-04-24T18:42:10;5.00;99.90
10247;DHT22;5168;47.854;7.944;2023-04-24T18:44:36;4.70;99.90
10247;DHT22;5168;47.854;7.944;2023-04-24T18:49:32;5.10;99.90
10247;DHT22;5168;47.854;7.944;2023-04-24T18:54:23;5.70;99.90
10247;DHT22;5168;47.854;7.944;2023-04-24T18:56:49;5.50;99.90
10247;DHT22;5168;47.854;7.944;2023-04-24T19:01:41;5.40;99.90
10247;DHT22;5168;47.854;7.944;2023-04-24T19:04:07;5.30;99.90
10247;DHT22;5168;47.854;7.944;2023-04-24T19:16:16;5.20;99.90
10247;DHT22;5168;47.854;7.944;2023-04-24T19:18:42;5.30;99.90
10247;DHT22;5168;47.854;7.944;2023-04-24T19:21:08;5.00;99.90
10247;DHT22;5168;47.854;7.944;2023-04-24T19:23:33;4.70;99.90
10247;DHT22;5168;47.854;7.944;2023-04-24T19:26:02;5.30;99.90
10247;DHT22;5168;47.854;7.944;2023-04-24T19:28:28;5.00;99.90
10247;DHT22;5168;47.854;7.944;2023-04-24T19:33:23;5.10;99.90
10247;DHT22;5168;47.854;7.944;2023-04-24T19:35:49;5.00;99.90
10247;DHT22;5168;47.854;7.944;2023-04-24T19:38:14;5.40;99.90
10247;DHT22;5168;47.854;7.944;2023-04-24T19:45:32;5.10;99.90
10247;DHT22;5168;47.854;7.944;2023-04-24T19:47:57;5.20;99.90
10247;DHT22;5168;47.854;7.944;2023-04-24T19:52:50;5.40;99.90
10247;DHT22;5168;47.854;7.944;2023-04-24T19:57:41;5.00;99.90
10247;DHT22;5168;47.854;7.944;2023-04-24T20:00:07;5.20;99.90
10247;DHT22;5168;47.854;7.944;2023-04-24T20:02:33;5.20;99.90
10247;DHT22;5168;47.854;7.944;2023-04-24T20:09:51;5.00;99.90
10247;DHT22;5168;47.854;7.944;2023-04-24T20:12:16;5.30;99.90
10247;DHT22;5168;47.854;7.944;2023-04-24T20:14:42;5.40;99.90
10247;DHT22;5168;47.854;7.944;2023-04-24T20:29:18;5.10;99.90
10247;DHT22;5168;47.854;7.944;2023-04-24T20:31:43;4.80;99.90
10247;DHT22;5168;47.854;7.944;2023-04-24T20:34:09;5.10;99.90
10247;DHT22;5168;47.854;7.944;2023-04-24T20:39:01;4.90;99.90
10247;DHT22;5168;47.854;7.944;2023-04-24T20:51:13;4.60;99.90
10247;DHT22;5168;47.854;7.944;2023-04-24T20:53:38;4.90;99.90
10247;DHT22;5168;47.854;7.944;2023-04-24T20:56:04;4.60;99.90
10247;DHT22;5168;47.854;7.944;2023-04-24T21:03:21;4.50;99.90
10247;DHT22;5168;47.854;7.944;2023-04-24T21:05:47;5.00;99.90
10247;DHT22;5168;47.854;7.944;2023-04-24T21:08:12;4.70;99.90
10247;DHT22;5168;47.854;7.944;2023-04-24T21:15:30;4.70;99.90
10247;DHT22;5168;47.854;7.944;2023-04-24T21:17:56;4.50;99.90
10247;DHT22;5168;47.854;7.944;2023-04-24T21:20:21;5.00;99.90
10247;DHT22;5168;47.854;7.944;2023-04-24T21:22:47;4.40;99.90
10247;DHT22;5168;47.854;7.944;2023-04-24T21:25:12;4.70;99.90
10247;DHT22;5168;47.854;7.944;2023-04-24T21:27:38;4.50;99.90
10247;DHT22;5168;47.854;7.944;2023-04-24T21:30:05;4.60;99.90
10247;DHT22;5168;47.854;7.944;2023-04-24T21:32:30;4.70;99.90
10247;DHT22;5168;47.854;7.944;2023-04-24T21:34:56;4.70;99.90
10247;DHT22;5168;47.854;7.944;2023-04-24T21:47:07;4.40;99.90
10247;DHT22;5168;47.854;7.944;2023-04-24T21:49:33;4.50;99.90
10247;DHT22;5168;47.854;7.944;2023-04-24T21:54:24;4.60;99.90
10247;DHT22;5168;47.854;7.944;2023-04-24T21:59:16;4.60;99.90
10247;DHT22;5168;47.854;7.944;2023-04-24T22:01:42;4.40;99.90
10247;DHT22;5168;47.854;7.944;2023-04-24T22:06:34;4.60;99.90
10247;DHT22;5168;47.854;7.944;2023-04-24T22:09:00;4.80;99.90
10247;DHT22;5168;47.854;7.944;2023-04-24T22:11:26;4.80;99.90
10247;DHT22;5168;47.854;7.944;2023-04-24T22:13:53;4.60;99.90
10247;DHT22;5168;47.854;7.944;2023-04-24T22:16:20;4.20;99.90
10247;DHT22;5168;47.854;7.944;2023-04-24T22:18:47;4.90;99.90